WetterOnline ( https://www.wetteronline.ch )

Wetter aktuell Rothaargebirge

Aktuelles Wetter: Kahler Asten (841m)

6-stündlich | Neueste Meldungen
Ortszeit Temperatur Wetter
Fr, 05.06. 8:00 3.4° C Nebel
Fr, 05.06. 2:00 5.5° C Sprühregen
Do, 04.06. 20:00 7.1° C Sprühregen
Do, 04.06. 14:00 10.2° C Sprühregen
Do, 04.06. 8:00 9.5° C leichter Regen
Do, 04.06. 2:00 13.9° C wolkig
Mi, 03.06. 20:00 15.7° C bewölkt
Mi, 03.06. 14:00 19.7° C bewölkt
Ortszeit Temperatur Wetter
Fr, 05.06. 11:30 4.8° C bedeckt
Fr, 05.06. 11:20 4.8° C Sprühregen
Fr, 05.06. 11:10 4.8° C Sprühregen
Fr, 05.06. 11:00 4.8° C bewölkt
Fr, 05.06. 10:50 4.8° C bewölkt
Fr, 05.06. 10:40 5.0° C leichter Regen
Fr, 05.06. 10:30 5.5° C bewölkt
Fr, 05.06. 10:00 5.1° C bewölkt
Ortszeit Relative Feuchte Sichtweite
Fr, 05.06. 8:00 96% 0.2 km
Fr, 05.06. 2:00 97% 2.1 km
Do, 04.06. 20:00 95% 2.8 km
Do, 04.06. 14:00 95% 1.3 km
Do, 04.06. 8:00 95% 2.0 km
Do, 04.06. 2:00 64% 60 km
Mi, 03.06. 20:00 65% 60 km
Mi, 03.06. 14:00 38% 65 km
Ortszeit Relative Feuchte Sichtweite
Fr, 05.06. 11:30 95% 14 km
Fr, 05.06. 11:20 95% -
Fr, 05.06. 11:10 95% -
Fr, 05.06. 11:00 95% 2.7 km
Fr, 05.06. 10:50 95% -
Fr, 05.06. 10:40 93% -
Fr, 05.06. 10:30 87% 30 km
Fr, 05.06. 10:00 89% 24 km
Ortszeit Niederschlagsmenge Niederschlagsart
Fr, 05.06. 8:00 2 l/m2 in 12 Std. Regen
Fr, 05.06. 2:00 0.8 l/m2 in 6 Std. Regen
Do, 04.06. 20:00 11 l/m2 in 12 Std. Regen
Do, 04.06. 14:00 8 l/m2 in 6 Std. Regen
Do, 04.06. 8:00 5 l/m2 in 12 Std. Regen
Do, 04.06. 2:00 0.0 l/m2 in 6 Std. -
Mi, 03.06. 20:00 0.0 l/m2 in 12 Std. -
Mi, 03.06. 14:00 0.0 l/m2 in 6 Std. -
Ortszeit Niederschlagsmenge Niederschlagsart
Fr, 05.06. 11:30 0.1 l/m2 in 1 Std. Schneeregen
Fr, 05.06. 11:20 keine Meldung -
Fr, 05.06. 11:10 keine Meldung -
Fr, 05.06. 11:00 0.1 l/m2 in 1 Std. Regen
Fr, 05.06. 10:50 keine Meldung -
Fr, 05.06. 10:40 keine Meldung -
Fr, 05.06. 10:30 0.0 l/m2 in 1 Std. -
Fr, 05.06. 10:00 0.0 l/m2 in 1 Std. -
Ortszeit Stärke Spitze Richtung
km/h Bft. km/h Grad Sektor
Fr, 05.06. 8:00 22 4 47 260° W
Fr, 05.06. 2:00 24 4 50 300° NW
Do, 04.06. 20:00 25 4 40 290° W
Do, 04.06. 14:00 19 3 26 260° W
Do, 04.06. 8:00 14 3 36 320° NW
Do, 04.06. 2:00 4 1 18 220° SW
Mi, 03.06. 20:00 13 3 26 110° O
Mi, 03.06. 14:00 9 2 31 290° W
Ortszeit Stärke Spitze Richtung
km/h Bft. km/h Grad Sektor
Fr, 05.06. 11:30 26 4 41 200° S
Fr, 05.06. 11:20 26 4 - 200° S
Fr, 05.06. 11:10 25 4 - 200° S
Fr, 05.06. 11:00 28 4 41 200° S
Fr, 05.06. 10:50 28 4 - 200° S
Fr, 05.06. 10:40 25 4 - 200° S
Fr, 05.06. 10:30 24 4 33 220° SW
Fr, 05.06. 10:00 20 4 31 230° SW
Ortszeit Untergrenze Bedeckung Gattung
total tief tief mittel hoch
Fr, 05.06. 8:00 30 m 7/8 7/8 - - -
Fr, 05.06. 2:00 30 m 8/8 8/8 - - -
Do, 04.06. 20:00 90 m 8/8 8/8 - - -
Do, 04.06. 14:00 30 m 7/8 7/8 - - -
Do, 04.06. 8:00 870 m 7/8 7/8 - - -
Do, 04.06. 2:00 1500 m 8/8 2/8 - - -
Mi, 03.06. 20:00 1500 m 7/8 6/8 - - -
Mi, 03.06. 14:00 1800 m 8/8 4/8 - - -
Ortszeit Bedeckungsgrad in Achtel und Wolkenuntergrenze
Fr, 05.06. 11:30 7(60m) 8(240m)
Fr, 05.06. 11:20 7(60m) 8(240m)
Fr, 05.06. 11:10 7(60m) 8(240m)
Fr, 05.06. 11:00 4(60m) 7(180m) 8(240m)
Fr, 05.06. 10:50 4(60m) 7(180m)
Fr, 05.06. 10:40 7(180m) 7(540m)
Fr, 05.06. 10:30 7(210m) 7(690m) 8(4800m)
Fr, 05.06. 10:00 4(90m) 7(180m) 8(4800m)
Ortszeit Stationsdruck (hPa) Tendenz (hPa in 3 Std.)
Fr, 05.06. 8:00 899 + 0,6
Fr, 05.06. 2:00 898 + 0,4
Do, 04.06. 20:00 898 + 0,2
Do, 04.06. 14:00 899 - 0,7
Do, 04.06. 8:00 900 - 1,4
Do, 04.06. 2:00 903 - 1,9
Mi, 03.06. 20:00 906 - 1,1
Mi, 03.06. 14:00 909 - 1,5
Ortszeit Stationsdruck (hPa) Tendenz (hPa in 3 Std.)
Fr, 05.06. 11:30 898 - 0,7
Fr, 05.06. 11:20 898 keine Meldung
Fr, 05.06. 11:10 899 keine Meldung
Fr, 05.06. 11:00 899 - 0,3
Fr, 05.06. 10:50 899 keine Meldung
Fr, 05.06. 10:40 899 keine Meldung
Fr, 05.06. 10:30 899 - 0,1
Fr, 05.06. 10:00 899 0,0
Ortszeit Schneehöhe (cm)
Fr, 05.06. 8:00 -
Fr, 05.06. 2:00 -
Do, 04.06. 20:00 -
Do, 04.06. 14:00 -
Do, 04.06. 8:00 -
Do, 04.06. 2:00 -
Mi, 03.06. 20:00 -
Mi, 03.06. 14:00 -
Ortszeit Schneehöhe (cm)
Fr, 05.06. 11:30 -
Fr, 05.06. 11:20 -
Fr, 05.06. 11:10 -
Fr, 05.06. 11:00 -
Fr, 05.06. 10:50 -
Fr, 05.06. 10:40 -
Fr, 05.06. 10:30 -
Fr, 05.06. 10:00 -
Link zu dieser Seite / Seite empfehlen

Das Wetter in ...